SASA/SLA METAR and TAF weather

Enter ICAO airport designator
Station Type Date Time Source
SASA METAR 2019/02/22 23:00 UTC NOAA

SASA 222300Z 02006KT 9999 FEW020 28/17 Q1013


Station Type Date Time Source
SASA Decoded METAR 2019/02/22 23:00 UTC NOAA

Salta Aerodrome, Argentina (SASA) 24-51S 065-29W 1221M
Feb 22, 2019 - 06:00 PM EST / 2019.02.22 2300 UTC
Wind: from the NNE (020 degrees) at 7 MPH (6 KT):0
Visibility: greater than 7 mile(s):0
Sky conditions: mostly clear
Temperature: 82 F (28 C)
Dew Point: 62 F (17 C)
Relative Humidity: 51%
Pressure (altimeter): 29.91 in. Hg (1013 hPa)
ob: SASA 222300Z 02006KT 9999 FEW020 28/17 Q1013
cycle: 23

Station Type Date Time Source
SASA TAF 2019/02/22 18:40 UTC NOAA

TAF COR SASA 221700Z 2218/2318 05005KT 9999 BKN030 TX30/2318Z TN19/2310Z FEW040TCU
BECMG 2301/2304 29005KT 9999 SCT035


Example: see airport list